Aérodrome :
LOGIN :

S'inscrire | Disclaimer

   EN    FR    IT 

 










Légende :    VFR   VFR Marginal   IFR   IFR Intensif   IFR Très Intensif
Visi : 
Plafond : 
>= 8 km
>= 3000ft
5 à 8 km
1000 à 3000 ft
1500m à 5 km
500 à 1000 ft
800 à 1500m
200 à 500 ft
< 800m
< 200 ft
Symboles :   Orages  Brouillard  Fortes neiges  Fortes précipitations  Vent > 20 kt
SIGMETs :   Divers  Orages  Givrage  Turbulence  Onde Orograph.  Cendres Volcan.






- Altitude de l'aérodrome : 82 ft
- Code IATA : AAR


EKAH - Aarhus Tirstrup

DERNIER METAR :
  • 042120Z AUTO 11010KT 070V150 9999NDV -RA OVC047/// 13/11 Q0991

METARs EXPIRÉS :
  • 042050Z AUTO 11011G21KT 080V140 9999NDV -RA OVC048/// 13/11 Q0992
  • 042020Z AUTO 11012KT 080V140 9999NDV DZ BKN064/// 14/11 Q0992
  • 041950Z AUTO 10012KT 080V140 9999NDV -RA BKN067/// 14/11 Q0992
  • 041920Z AUTO 11012KT 9999NDV -RA BKN068/// 14/12 Q0992
  • 041850Z AUTO 11010KT 070V140 9999NDV -RA OVC056/// 14/12 Q0993

TAF TAF EKAH
Valide du 04 à 18h jusqu'au 05 à 18h UTC


041716Z 0418/0518 12012KT 9999 BKN040
TEMPO 0418/0424 12015G30KT 3000 SHRA BKN050CB
PROB40
TEMPO 0418/0504 TSRA
TEMPO 0500/0504 3000 SHRA BKN008 BKN050CB
BECMG 0500/0502 24010KT
TEMPO 0508/0515 SHRA SCT020TCU
BECMG 0515/0518 15008KT



MET'MAP, la Météo Aéronautique d'un coup d'oeil ! - Copyright ORBIFLY Décembre 2007 - Disclaimer

ORBIFLY MET'MAP TEAM :

Programmation & Développement : Alexandra Zaïnal
Sur une idée originale de : Baudouin d'Aumeries
Assistance à la programmation : Marc-Olivier Méhu
Soutien technique & logistique : Manuel Goepfert

Contact : metmap@orbifly.com




SOURCES & CREDITS :

   NOAA